Time;durP1;ratioP1;P1;durP2;ratioP2;P2;SDS_P1;SDS_P2;PMS_P1;PMS_P2;Temp;Humidity;BMP_temperature;BMP_pressure;BME280_temperature;BME280_humidity;BME280_pressure;Samples;Min_cycle;Max_cycle;Signal;HPM_P1;HPM_P2
2022/05/13 00:00:17;;;;;;;;;;;;;;;;;;5091178;28;19999;-73
2022/05/13 00:04:16;;;;;;;;;;;;;;;;;;5091848;27;19917;-73
2022/05/13 00:07:08;;;;;;;;;;;;;;;;;;5091864;27;19923;-72
2022/05/13 00:10:07;;;;;;;;;;;;;;;;;;5090822;28;19999;-72
2022/05/13 00:12:26;;;;;;;;;;;;;;;;;;5090898;28;19966;-73
2022/05/13 00:16:38;;;;;;;;;;;;;;;;;;5091208;27;19916;-72
2022/05/13 00:19:04;;;;;;;;;;;;;;;;;;5091146;28;19912;-72
2022/05/13 00:21:30;;;;;;;;;;;;;;;;;;5091149;28;19908;-73
2022/05/13 00:23:56;;;;;;;;;;;;;;;;;;5090846;28;20373;-73
2022/05/13 00:26:22;;;;;;;;;;;;;;;;;;5091141;28;20387;-73
2022/05/13 00:28:48;;;;;;;;;;;;;;;;;;5090984;28;20003;-73
2022/05/13 00:31:15;;;;;;;;;;;;;;;;;;5090716;28;20331;-73
2022/05/13 00:33:41;;;;;;;;;;;;;;;;;;5091189;28;19915;-72
2022/05/13 00:36:07;;;;;;;;;;;;;;;;;;5090739;28;20308;-72
2022/05/13 00:42:22;;;;;;;;;;;;;;;;;;5091953;28;20217;-72
2022/05/13 00:44:48;;;;;;;;;;;;;;;;;;5089622;28;19916;-72
2022/05/13 00:47:14;;;;;;;;;;;;;;;;;;5091127;28;19908;-72
2022/05/13 00:49:40;;;;;;;;;;;;;;;;;;5091122;28;20329;-73
2022/05/13 00:55:11;;;;;;;;;;;;;;;;;;5153271;27;20333;-72
2022/05/13 00:57:37;;;;;;;;;;;;;;;;;;5152401;27;19912;-72
2022/05/13 01:00:04;;;;;;;;;;;;;;;;;;5152674;27;20003;-72
2022/05/13 01:03:00;;;;;;;;;;;;;;;;;;5091779;27;19912;-73
2022/05/13 01:05:28;;;;;;;;;;;;;;;;;;5090818;28;19954;-73
2022/05/13 01:07:54;;;;;;;;;;;;;;;;;;5091129;28;19912;-73
2022/05/13 01:10:20;;;;;;;;;;;;;;;;;;5091199;28;19915;-72
2022/05/13 01:12:49;;;;;;;;;;;;;;;;;;5090671;28;19908;-73
2022/05/13 01:19:56;;;;;;;;;;;;;;;;;;5090868;28;19922;-73
2022/05/13 01:24:41;;;;;;;;;;;;;;;;;;5153288;27;20022;-73
2022/05/13 01:27:07;;;;;;;;;;;;;;;;;;5152386;27;19911;-73
2022/05/13 01:29:33;;;;;;;;;;;;;;;;;;5152595;27;19911;-75
2022/05/13 01:33:58;;;;;;;;;;;;;;;;;;5091229;28;19916;-72
2022/05/13 01:36:44;;;;;;;;;;;;;;;;;;5152895;27;20375;-72
2022/05/13 01:40:59;;;;;;;;;;;;;;;;;;5091150;27;20299;-73
2022/05/13 01:43:25;;;;;;;;;;;;;;;;;;5091640;28;19969;-73
2022/05/13 01:45:51;;;;;;;;;;;;;;;;;;5091085;28;19912;-72
2022/05/13 01:48:17;;;;;;;;;;;;;;;;;;5089472;28;19908;-72
2022/05/13 01:50:43;;;;;;;;;;;;;;;;;;5091061;28;19915;-73
2022/05/13 01:53:09;;;;;;;;;;;;;;;;;;5091047;28;20006;-72
2022/05/13 01:55:35;;;;;;;;;;;;;;;;;;5090560;28;19909;-72
2022/05/13 01:58:58;;;;;;;;;;;;;;;;;;5092056;27;19916;-72
2022/05/13 02:06:03;;;;;;;;;;;;;;;;;;5091254;28;20051;-73
2022/05/13 02:09:28;;;;;;;;;;;;;;;;;;5152620;27;19918;-73
2022/05/13 02:13:08;;;;;;;;;;;;;;;;;;5091308;27;20391;-73
2022/05/13 02:15:34;;;;;;;;;;;;;;;;;;5090926;28;20007;-72
2022/05/13 02:18:00;;;;;;;;;;;;;;;;;;5091208;28;19999;-73
2022/05/13 02:20:26;;;;;;;;;;;;;;;;;;5091103;28;19912;-73
2022/05/13 02:24:10;;;;;;;;;;;;;;;;;;5090816;27;19923;-74
2022/05/13 02:26:36;;;;;;;;;;;;;;;;;;5091619;28;20272;-74
2022/05/13 02:29:02;;;;;;;;;;;;;;;;;;5090952;28;19962;-74
2022/05/13 02:33:49;;;;;;;;;;;;;;;;;;5092024;27;19916;-73
2022/05/13 02:38:26;;;;;;;;;;;;;;;;;;5091494;27;19923;-73
2022/05/13 02:43:37;;;;;;;;;;;;;;;;;;5090816;28;19954;-74
2022/05/13 02:46:03;;;;;;;;;;;;;;;;;;5091147;28;19916;-73
2022/05/13 02:48:29;;;;;;;;;;;;;;;;;;5091039;28;19935;-73
2022/05/13 02:50:55;;;;;;;;;;;;;;;;;;5090701;28;19908;-73
2022/05/13 02:53:21;;;;;;;;;;;;;;;;;;5091331;28;20303;-72
2022/05/13 02:55:47;;;;;;;;;;;;;;;;;;5089688;28;19951;-73
2022/05/13 02:59:22;;;;;;;;;;;;;;;;;;5091163;27;19916;-73
2022/05/13 03:01:50;;;;;;;;;;;;;;;;;;5091237;28;20329;-74
2022/05/13 03:04:16;;;;;;;;;;;;;;;;;;5090780;28;19962;-74
2022/05/13 03:06:42;;;;;;;;;;;;;;;;;;5091167;28;19912;-74
2022/05/13 03:09:09;;;;;;;;;;;;;;;;;;5091133;28;19915;-74
2022/05/13 03:11:36;;;;;;;;;;;;;;;;;;5090754;28;20365;-74
2022/05/13 03:14:02;;;;;;;;;;;;;;;;;;5091391;28;19943;-74
2022/05/13 03:16:30;;;;;;;;;;;;;;;;;;5089547;28;19916;-74
2022/05/13 03:19:07;;;;;;;;;;;;;;;;;;5091369;27;19916;-73
2022/05/13 03:22:56;;;;;;;;;;;;;;;;;;5091867;27;19918;-73
2022/05/13 03:25:22;;;;;;;;;;;;;;;;;;5090874;28;19999;-74
2022/05/13 03:28:23;;;;;;;;;;;;;;;;;;5092021;27;19917;-73
2022/05/13 03:31:59;;;;;;;;;;;;;;;;;;5111724;27;19938;-73
2022/05/13 03:34:26;;;;;;;;;;;;;;;;;;5111194;28;20431;-73
2022/05/13 03:36:52;;;;;;;;;;;;;;;;;;5111463;28;20388;-73
2022/05/13 03:39:18;;;;;;;;;;;;;;;;;;5111157;28;19965;-73
2022/05/13 03:42:55;;;;;;;;;;;;;;;;;;5092024;27;19919;-73
2022/05/13 03:46:20;;;;;;;;;;;;;;;;;;5091676;27;19923;-73
2022/05/13 03:51:00;;;;;;;;;;;;;;;;;;5091462;27;19916;-73
2022/05/13 03:55:08;;;;;;;;;;;;;;;;;;5090945;27;19923;-72
2022/05/13 03:59:27;;;;;;;;;;;;;;;;;;5091583;27;19916;-72
2022/05/13 04:01:53;;;;;;;;;;;;;;;;;;5090744;28;20428;-72
2022/05/13 04:04:21;;;;;;;;;;;;;;;;;;5091083;28;20008;-73
2022/05/13 04:09:31;;;;;;;;;;;;;;;;;;5090714;28;19916;-73
2022/05/13 04:20:06;;;;;;;;;;;;;;;;;;5091754;27;19916;-75
2022/05/13 04:24:42;;;;;;;;;;;;;;;;;;5092017;27;19917;-71
2022/05/13 04:27:08;;;;;;;;;;;;;;;;;;5091237;28;20019;-69
2022/05/13 04:29:37;;;;;;;;;;;;;;;;;;5091027;28;20404;-72
2022/05/13 04:32:23;;;;;;;;;;;;;;;;;;5111899;27;19916;-69
2022/05/13 04:38:19;;;;;;;;;;;;;;;;;;5153171;27;20005;-71
2022/05/13 04:42:50;;;;;;;;;;;;;;;;;;5112032;27;19938;-69
2022/05/13 04:45:16;;;;;;;;;;;;;;;;;;5111726;28;19957;-69
2022/05/13 04:52:28;;;;;;;;;;;;;;;;;;5092029;27;19919;-69
2022/05/13 04:54:54;;;;;;;;;;;;;;;;;;5091244;28;19995;-69
2022/05/13 04:59:42;;;;;;;;;;;;;;;;;;5111934;27;20360;-70
2022/05/13 05:02:08;;;;;;;;;;;;;;;;;;5111802;28;20011;-69
2022/05/13 05:08:46;;;;;;;;;;;;;;;;;;5087820;27;20300;-69
2022/05/13 05:16:22;;;;;;;;;;;;;;;;;;5091177;27;19923;-68
2022/05/13 05:23:27;;;;;;;;;;;;;;;;;;5085859;28;19912;-69
2022/05/13 05:25:53;;;;;;;;;;;;;;;;;;5088647;28;19919;-68
2022/05/13 05:28:19;;;;;;;;;;;;;;;;;;5089186;28;20332;-68
2022/05/13 05:31:38;;;;;;;;;;;;;;;;;;5128492;27;19929;-67
2022/05/13 05:34:04;;;;;;;;;;;;;;;;;;5090609;27;20291;-68
2022/05/13 05:36:30;;;;;;;;;;;;;;;;;;5110779;28;20287;-68
2022/05/13 05:38:56;;;;;;;;;;;;;;;;;;5107858;28;19908;-68
2022/05/13 05:41:22;;;;;;;;;;;;;;;;;;5105335;28;19908;-69
2022/05/13 05:43:49;;;;;;;;;;;;;;;;;;5108210;28;20007;-69
2022/05/13 05:46:15;;;;;;;;;;;;;;;;;;5109951;28;19908;-68
2022/05/13 05:48:41;;;;;;;;;;;;;;;;;;5109960;28;19912;-68
2022/05/13 05:51:07;;;;;;;;;;;;;;;;;;5110039;28;19939;-68
2022/05/13 05:59:10;;;;;;;;;;;;;;;;;;5110874;28;19958;-68
2022/05/13 06:02:06;;;;;;;;;;;;;;;;;;5090568;27;20294;-68
2022/05/13 06:07:58;;;;;;;;;;;;;;;;;;5048107;27;2571431;-67
2022/05/13 06:10:24;;;;;;;;;;;;;;;;;;5100707;28;20006;-67
2022/05/13 06:12:50;;;;;;;;;;;;;;;;;;5110713;28;20719;-67
2022/05/13 06:15:16;;;;;;;;;;;;;;;;;;5109832;28;19916;-66
2022/05/13 06:17:43;;;;;;;;;;;;;;;;;;5114932;28;19908;-69
2022/05/13 06:20:09;;;;;;;;;;;;;;;;;;5099946;28;19917;-67
2022/05/13 06:22:35;;;;;;;;;;;;;;;;;;5091793;28;20034;-68
2022/05/13 06:25:02;;;;;;;;;;;;;;;;;;5081741;28;20422;-71
2022/05/13 06:28:02;;;;;;;;;;;;;;;;;;5090300;28;19917;-68
2022/05/13 06:35:44;;;;;;;;;;;;;;;;;;5068753;27;19921;-67
2022/05/13 06:39:18;;;;;;;;;;;;;;;;;;5087911;27;19923;-67
2022/05/13 06:44:10;;;;;;;;;;;;;;;;;;5083359;27;2220102;-70
2022/05/13 06:50:04;;;;;;;;;;;;;;;;;;5137096;27;19916;-65
2022/05/13 06:52:30;;;;;;;;;;;;;;;;;;5128998;28;19956;-66
2022/05/13 06:55:49;;;;;;;;;;;;;;;;;;5088921;28;19930;-67
2022/05/13 06:58:15;;;;;;;;;;;;;;;;;;5076874;28;19960;-69
2022/05/13 07:01:45;;;;;;;;;;;;;;;;;;5143143;27;20361;-68
2022/05/13 07:04:11;;;;;;;;;;;;;;;;;;5115026;27;20003;-68
2022/05/13 07:07:43;;;;;;;;;;;;;;;;;;5112444;27;19950;-68
2022/05/13 07:10:10;;;;;;;;;;;;;;;;;;5115768;28;19973;-67
2022/05/13 07:12:36;;;;;;;;;;;;;;;;;;5112149;28;20245;-67
2022/05/13 07:15:03;;;;;;;;;;;;;;;;;;5107889;28;19911;-68
2022/05/13 07:17:41;;;;;;;;;;;;;;;;;;5068618;28;19921;-67
2022/05/13 07:26:21;;;;;;;;;;;;;;;;;;5088681;27;19923;-69
2022/05/13 07:28:47;;;;;;;;;;;;;;;;;;5083867;28;19914;-68
2022/05/13 07:31:13;;;;;;;;;;;;;;;;;;5062239;28;20016;-70
2022/05/13 07:33:39;;;;;;;;;;;;;;;;;;5066737;28;19923;-69
2022/05/13 07:36:05;;;;;;;;;;;;;;;;;;5063941;28;20365;-69
2022/05/13 07:38:31;;;;;;;;;;;;;;;;;;5058948;28;19913;-68
2022/05/13 07:43:03;;;;;;;;;;;;;;;;;;5089537;27;20387;-68
2022/05/13 07:52:13;;;;;;;;;;;;;;;;;;5088804;28;19916;-68
2022/05/13 07:54:41;;;;;;;;;;;;;;;;;;5069541;28;19916;-70
2022/05/13 07:58:33;;;;;;;;;;;;;;;;;;5083041;27;19931;-68
2022/05/13 08:01:00;;;;;;;;;;;;;;;;;;5086088;28;19912;-71
2022/05/13 08:03:26;;;;;;;;;;;;;;;;;;5083101;28;19966;-70
2022/05/13 08:05:53;;;;;;;;;;;;;;;;;;5083461;28;19982;-70
2022/05/13 08:09:17;;;;;;;;;;;;;;;;;;5089409;27;19912;-69
2022/05/13 08:11:46;;;;;;;;;;;;;;;;;;5084529;28;19919;-69
2022/05/13 08:14:12;;;;;;;;;;;;;;;;;;5066756;28;19912;-68
2022/05/13 08:17:23;;;;;;;;;;;;;;;;;;5082981;27;19921;-69
2022/05/13 08:19:49;;;;;;;;;;;;;;;;;;5087943;28;19930;-68
2022/05/13 08:22:15;;;;;;;;;;;;;;;;;;5087297;28;19919;-69
2022/05/13 08:28:50;;;;;;;;;;;;;;;;;;5123327;27;20790;-69
2022/05/13 08:31:17;;;;;;;;;;;;;;;;;;5108029;28;19952;-69
2022/05/13 08:35:14;;;;;;;;;;;;;;;;;;5026781;27;3382895;-69
2022/05/13 08:37:40;;;;;;;;;;;;;;;;;;5151460;27;19911;-69
2022/05/13 08:41:34;;;;;;;;;;;;;;;;;;5078245;27;20300;-69
2022/05/13 08:44:31;;;;;;;;;;;;;;;;;;5081133;27;20382;-71
2022/05/13 08:50:51;;;;;;;;;;;;;;;;;;5138220;27;20391;-68
2022/05/13 08:53:18;;;;;;;;;;;;;;;;;;5137253;27;20534;-67
2022/05/13 08:55:44;;;;;;;;;;;;;;;;;;5121570;27;19911;-67
2022/05/13 08:58:11;;;;;;;;;;;;;;;;;;5138790;27;19911;-69
2022/05/13 09:00:37;;;;;;;;;;;;;;;;;;5137264;27;19972;-70
2022/05/13 09:03:20;;;;;;;;;;;;;;;;;;5084550;27;19923;-70
2022/05/13 09:05:46;;;;;;;;;;;;;;;;;;5073918;28;19956;-72
2022/05/13 09:08:12;;;;;;;;;;;;;;;;;;5070448;28;19955;-69
2022/05/13 09:10:38;;;;;;;;;;;;;;;;;;5068778;28;20332;-69
2022/05/13 09:13:04;;;;;;;;;;;;;;;;;;5068877;28;19916;-69
2022/05/13 09:15:30;;;;;;;;;;;;;;;;;;5070919;28;20392;-69
2022/05/13 09:17:56;;;;;;;;;;;;;;;;;;5069311;28;19920;-69
2022/05/13 09:20:22;;;;;;;;;;;;;;;;;;5068472;28;19916;-70
2022/05/13 09:24:38;;;;;;;;;;;;;;;;;;5110947;27;19943;-69
2022/05/13 09:27:47;;;;;;;;;;;;;;;;;;5068075;28;19916;-71
2022/05/13 09:30:13;;;;;;;;;;;;;;;;;;5067560;28;19913;-69
2022/05/13 09:32:40;;;;;;;;;;;;;;;;;;5065351;28;19915;-71
2022/05/13 09:35:07;;;;;;;;;;;;;;;;;;5062398;28;20373;-71
2022/05/13 09:37:33;;;;;;;;;;;;;;;;;;5064973;28;19956;-72
2022/05/13 09:39:59;;;;;;;;;;;;;;;;;;5064793;28;20365;-70
2022/05/13 09:42:26;;;;;;;;;;;;;;;;;;5066003;28;19913;-69
2022/05/13 09:44:52;;;;;;;;;;;;;;;;;;5065950;28;20007;-71
2022/05/13 09:47:34;;;;;;;;;;;;;;;;;;5085246;27;19927;-69
2022/05/13 09:50:00;;;;;;;;;;;;;;;;;;5084805;28;19912;-69
2022/05/13 09:52:26;;;;;;;;;;;;;;;;;;5084287;28;19914;-69
2022/05/13 09:54:52;;;;;;;;;;;;;;;;;;5082266;28;19909;-69
2022/05/13 09:57:18;;;;;;;;;;;;;;;;;;5083094;28;19957;-69
2022/05/13 09:59:44;;;;;;;;;;;;;;;;;;5065302;28;20003;-67
2022/05/13 10:02:10;;;;;;;;;;;;;;;;;;5066067;28;19909;-69
2022/05/13 10:04:36;;;;;;;;;;;;;;;;;;5065951;28;19913;-68
2022/05/13 10:07:02;;;;;;;;;;;;;;;;;;5068805;28;19964;-69
2022/05/13 10:14:57;;;;;;;;;;;;;;;;;;5069319;28;19981;-69
2022/05/13 10:17:23;;;;;;;;;;;;;;;;;;5069319;28;19912;-69
2022/05/13 10:19:49;;;;;;;;;;;;;;;;;;5067875;28;19967;-69
2022/05/13 10:22:15;;;;;;;;;;;;;;;;;;5066475;28;20416;-69
2022/05/13 10:24:41;;;;;;;;;;;;;;;;;;5066424;28;19909;-69
2022/05/13 10:27:07;;;;;;;;;;;;;;;;;;5062805;28;20024;-71
2022/05/13 10:29:33;;;;;;;;;;;;;;;;;;5099556;28;19923;-70
2022/05/13 10:31:59;;;;;;;;;;;;;;;;;;5060738;28;20276;-70
2022/05/13 10:34:25;;;;;;;;;;;;;;;;;;5048318;28;19913;-70
2022/05/13 10:36:51;;;;;;;;;;;;;;;;;;5048676;28;20361;-70
2022/05/13 10:39:19;;;;;;;;;;;;;;;;;;5049270;28;19954;-69
2022/05/13 10:41:45;;;;;;;;;;;;;;;;;;5049333;28;19909;-69
2022/05/13 10:44:11;;;;;;;;;;;;;;;;;;5050763;28;19940;-68
2022/05/13 10:46:37;;;;;;;;;;;;;;;;;;5079535;28;19969;-69
2022/05/13 10:49:03;;;;;;;;;;;;;;;;;;5088692;28;19912;-68
2022/05/13 10:51:29;;;;;;;;;;;;;;;;;;5086954;28;19916;-69
2022/05/13 10:53:55;;;;;;;;;;;;;;;;;;5089125;28;19995;-70
2022/05/13 10:56:21;;;;;;;;;;;;;;;;;;5076026;28;20081;-70
2022/05/13 10:58:49;;;;;;;;;;;;;;;;;;5061138;28;19908;-70
2022/05/13 11:01:15;;;;;;;;;;;;;;;;;;5068667;28;19908;-69
2022/05/13 11:03:41;;;;;;;;;;;;;;;;;;5055051;28;20341;-71
2022/05/13 11:06:06;;;;;;;;;;;;;;;;;;5087146;28;20011;-70
2022/05/13 11:08:32;;;;;;;;;;;;;;;;;;5074782;28;20372;-71
2022/05/13 11:10:59;;;;;;;;;;;;;;;;;;5055652;28;19947;-70
2022/05/13 11:13:25;;;;;;;;;;;;;;;;;;5074464;28;19969;-70
2022/05/13 11:15:51;;;;;;;;;;;;;;;;;;5069355;28;19941;-70
2022/05/13 11:18:17;;;;;;;;;;;;;;;;;;5070341;28;19915;-72
2022/05/13 11:20:43;;;;;;;;;;;;;;;;;;5072974;28;20339;-70
2022/05/13 11:23:09;;;;;;;;;;;;;;;;;;5053360;28;19913;-72
2022/05/13 11:28:19;;;;;;;;;;;;;;;;;;5074327;28;19942;-71
2022/05/13 11:30:45;;;;;;;;;;;;;;;;;;5055929;28;19916;-71
2022/05/13 11:33:11;;;;;;;;;;;;;;;;;;5074781;28;20387;-70
2022/05/13 11:35:38;;;;;;;;;;;;;;;;;;5073930;28;19919;-68
2022/05/13 11:38:04;;;;;;;;;;;;;;;;;;5073654;28;19908;-69
2022/05/13 11:40:30;;;;;;;;;;;;;;;;;;5075225;28;19908;-70
2022/05/13 11:45:41;;;;;;;;;;;;;;;;;;5054581;28;19973;-70
2022/05/13 11:48:07;;;;;;;;;;;;;;;;;;5055129;28;19909;-70
2022/05/13 11:50:33;;;;;;;;;;;;;;;;;;5063873;28;19916;-70
2022/05/13 11:52:59;;;;;;;;;;;;;;;;;;5073831;28;19908;-70
2022/05/13 11:55:25;;;;;;;;;;;;;;;;;;5074303;28;19916;-69
2022/05/13 11:57:51;;;;;;;;;;;;;;;;;;5074601;28;19915;-70
2022/05/13 12:00:17;;;;;;;;;;;;;;;;;;5072688;28;19909;-69
2022/05/13 12:02:43;;;;;;;;;;;;;;;;;;5074319;28;20364;-70
2022/05/13 12:05:09;;;;;;;;;;;;;;;;;;5074669;28;19940;-70
2022/05/13 12:07:35;;;;;;;;;;;;;;;;;;5074251;28;19915;-70
2022/05/13 12:10:01;;;;;;;;;;;;;;;;;;5072854;28;20330;-70
2022/05/13 12:12:27;;;;;;;;;;;;;;;;;;5073292;28;20264;-70
2022/05/13 12:14:53;;;;;;;;;;;;;;;;;;5072270;28;19912;-72
2022/05/13 12:17:19;;;;;;;;;;;;;;;;;;5072212;28;20387;-71
2022/05/13 12:19:45;;;;;;;;;;;;;;;;;;5072923;28;19931;-75
2022/05/13 12:22:11;;;;;;;;;;;;;;;;;;5071101;28;19908;-72
2022/05/13 12:24:37;;;;;;;;;;;;;;;;;;5055039;28;20296;-72
2022/05/13 12:27:07;;;;;;;;;;;;;;;;;;5072764;28;19997;-73
2022/05/13 12:29:33;;;;;;;;;;;;;;;;;;5073172;28;20036;-72
2022/05/13 12:31:59;;;;;;;;;;;;;;;;;;5070795;28;19920;-71
2022/05/13 12:39:56;;;;;;;;;;;;;;;;;;5064070;28;19982;-71
2022/05/13 12:42:22;;;;;;;;;;;;;;;;;;5060191;28;19917;-72
2022/05/13 12:44:48;;;;;;;;;;;;;;;;;;5069561;28;19909;-73
2022/05/13 12:47:17;;;;;;;;;;;;;;;;;;5053363;28;19946;-72
2022/05/13 12:49:43;;;;;;;;;;;;;;;;;;5068929;28;20269;-71
2022/05/13 12:52:09;;;;;;;;;;;;;;;;;;5053873;28;19915;-71
2022/05/13 12:54:35;;;;;;;;;;;;;;;;;;5052956;28;20396;-73
2022/05/13 12:57:01;;;;;;;;;;;;;;;;;;5067385;28;19992;-72
2022/05/13 12:59:27;;;;;;;;;;;;;;;;;;5052605;28;20276;-73
2022/05/13 13:01:53;;;;;;;;;;;;;;;;;;5052203;28;19913;-69
2022/05/13 13:04:19;;;;;;;;;;;;;;;;;;5051846;28;20281;-73
2022/05/13 13:06:45;;;;;;;;;;;;;;;;;;5052004;28;20379;-75
2022/05/13 13:09:11;;;;;;;;;;;;;;;;;;5051060;28;19951;-74
2022/05/13 13:11:37;;;;;;;;;;;;;;;;;;5053950;28;20418;-74
2022/05/13 13:14:03;;;;;;;;;;;;;;;;;;5053733;28;19920;-75
2022/05/13 13:16:33;;;;;;;;;;;;;;;;;;5053393;28;20376;-74
2022/05/13 13:18:59;;;;;;;;;;;;;;;;;;5053662;28;20376;-75
2022/05/13 13:21:25;;;;;;;;;;;;;;;;;;5053430;28;20004;-75
2022/05/13 13:23:51;;;;;;;;;;;;;;;;;;5053360;28;20336;-75
2022/05/13 13:26:16;;;;;;;;;;;;;;;;;;5053699;28;19916;-73
2022/05/13 13:28:43;;;;;;;;;;;;;;;;;;5053687;28;19913;-76
2022/05/13 13:31:09;;;;;;;;;;;;;;;;;;5052690;28;19959;-73
2022/05/13 13:33:35;;;;;;;;;;;;;;;;;;5055370;28;20312;-72
2022/05/13 13:36:01;;;;;;;;;;;;;;;;;;5053878;28;19913;-75
2022/05/13 13:38:27;;;;;;;;;;;;;;;;;;5053474;28;19932;-73
2022/05/13 13:40:53;;;;;;;;;;;;;;;;;;5053523;28;19920;-72
2022/05/13 13:43:19;;;;;;;;;;;;;;;;;;5055375;28;19909;-73
2022/05/13 13:45:45;;;;;;;;;;;;;;;;;;5064868;28;20011;-73
2022/05/13 13:48:11;;;;;;;;;;;;;;;;;;5052780;28;19915;-72
2022/05/13 13:50:40;;;;;;;;;;;;;;;;;;5053191;28;19909;-74
2022/05/13 13:53:06;;;;;;;;;;;;;;;;;;5052981;28;19996;-74
2022/05/13 13:55:35;;;;;;;;;;;;;;;;;;5069020;28;19962;-75
2022/05/13 13:58:01;;;;;;;;;;;;;;;;;;5053750;28;19909;-74
2022/05/13 14:00:27;;;;;;;;;;;;;;;;;;5052984;28;19909;-75
2022/05/13 14:02:54;;;;;;;;;;;;;;;;;;5053401;28;20288;-75
2022/05/13 14:05:28;;;;;;;4.35;1.70;;;;;;;;;;5067241;28;20756;-75
2022/05/13 14:07:55;;;;;;;3.22;1.60;;;;;;;;;;5052975;28;20039;-76
2022/05/13 14:10:27;;;;;;;2.13;1.35;;;;;;;;;;5052867;28;20025;-76
2022/05/13 14:12:53;;;;;;;4.80;1.70;;;;;;;;;;5052448;28;20033;-75
2022/05/13 14:15:21;;;;;;;1.95;1.42;;;;;;;;;;5053107;28;20029;-76
2022/05/13 14:17:56;;;;;;;3.75;1.65;;;;;;;;;;5052873;28;20029;-76
2022/05/13 14:20:30;;;;;;;2.10;1.50;;;;;;;;;;5052465;28;20021;-75
2022/05/13 14:23:05;;;;;;;3.08;1.52;;;;;;;;;;5052833;28;20024;-76
2022/05/13 14:26:00;;;;;;;2.53;1.52;;;;;;;;;;5052737;28;20066;-76
2022/05/13 14:28:31;;;;;;;2.60;1.33;;;;;;;;;;5030246;28;20029;-76
2022/05/13 14:30:59;;;;;;;3.35;1.85;;;;;;;;;;5052681;28;20025;-76
2022/05/13 14:33:29;;;;;;;2.20;1.25;;;;;;;;;;5054527;28;20021;-76
2022/05/13 14:36:02;;;;;;;4.22;1.88;;;;;;;;;;5056656;28;20096;-76
2022/05/13 14:41:28;;;;;;;2.35;1.27;;;;;;;;;;5056173;28;20043;-75
2022/05/13 14:43:56;;;;;;;3.70;1.90;;;;;;;;;;5056277;28;20021;-75
2022/05/13 14:46:26;;;;;;;2.58;1.45;;;;;;;;;;5055957;28;20072;-76
2022/05/13 14:48:52;;;;;;;3.00;1.70;;;;;;;;;;5067645;28;20473;-75
2022/05/13 14:51:20;;;;;;;3.33;1.67;;;;;;;;;;5075421;28;20389;-75
2022/05/13 14:53:49;;;;;;;2.28;1.50;;;;;;;;;;5069589;28;20502;-73
2022/05/13 14:56:15;;;;;;;3.22;1.48;;;;;;;;;;5067250;28;20013;-73
2022/05/13 14:58:47;;;;;;;4.57;1.77;;;;;;;;;;5073054;28;20032;-75
2022/05/13 15:01:20;;;;;;;6.35;1.60;;;;;;;;;;5074998;28;20025;-75
2022/05/13 15:03:47;;;;;;;4.13;1.83;;;;;;;;;;5075165;28;20031;-74
2022/05/13 15:06:33;;;;;;;2.10;1.25;;;;;;;;;;5075872;28;20420;-74
2022/05/13 15:09:19;;;;;;;3.05;1.30;;;;;;;;;;5073275;28;20469;-74
2022/05/13 15:11:49;;;;;;;2.90;1.52;;;;;;;;;;5072144;28;20025;-75
2022/05/13 15:14:15;;;;;;;5.90;1.67;;;;;;;;;;5068330;28;20032;-75
2022/05/13 15:16:42;;;;;;;3.00;1.50;;;;;;;;;;5055567;28;20382;-75
2022/05/13 15:19:24;;;;;;;1.90;1.40;;;;;;;;;;5061844;28;20020;-76
2022/05/13 15:21:51;;;;;;;2.28;1.38;;;;;;;;;;5075808;28;20029;-76
2022/05/13 15:24:18;;;;;;;2.65;1.70;;;;;;;;;;5075377;28;20024;-76
2022/05/13 15:26:44;;;;;;;2.13;1.33;;;;;;;;;;5075502;28;20042;-75
2022/05/13 15:29:10;;;;;;;3.30;1.50;;;;;;;;;;5075433;28;20542;-75
2022/05/13 15:31:36;;;;;;;4.68;2.22;;;;;;;;;;5075185;28;20033;-75
2022/05/13 15:34:03;;;;;;;2.50;1.30;;;;;;;;;;5075467;28;20025;-76
2022/05/13 15:36:32;;;;;;;2.38;1.30;;;;;;;;;;5075350;28;20493;-75
2022/05/13 15:38:59;;;;;;;3.45;1.35;;;;;;;;;;5059092;28;20060;-75
2022/05/13 15:41:26;;;;;;;2.15;1.30;;;;;;;;;;5054870;28;20067;-76
2022/05/13 15:43:52;;;;;;;2.35;1.40;;;;;;;;;;5054134;28;20108;-73
2022/05/13 15:46:28;;;;;;;2.78;1.40;;;;;;;;;;5053400;28;20094;-74
2022/05/13 15:52:40;;;;;;;4.22;1.83;;;;;;;;;;5053674;28;20048;-74
2022/05/13 15:54:25;;;;;;;2.17;1.20;;;;;;;;;;5054277;28;20409;-73
2022/05/13 15:56:52;;;;;;;2.67;1.27;;;;;;;;;;5052899;28;20025;-74
2022/05/13 15:59:18;;;;;;;2.42;1.58;;;;;;;;;;5052443;28;20633;-74
2022/05/13 16:01:44;;;;;;;1.92;1.67;;;;;;;;;;5053128;28;20021;-74
2022/05/13 16:04:10;;;;;;;3.53;1.48;;;;;;;;;;5052806;28;20025;-74
2022/05/13 16:06:37;;;;;;;1.90;1.35;;;;;;;;;;5052264;28;20028;-74
2022/05/13 16:09:03;;;;;;;2.28;1.38;;;;;;;;;;5052606;28;20028;-74
2022/05/13 16:11:31;;;;;;;2.25;1.40;;;;;;;;;;5054621;28;20021;-74
2022/05/13 16:13:57;;;;;;;5.05;1.80;;;;;;;;;;5069558;28;20025;-74
2022/05/13 16:16:26;;;;;;;3.05;1.65;;;;;;;;;;5054634;28;20075;-74
2022/05/13 16:18:53;;;;;;;2.25;1.70;;;;;;;;;;5054475;28;20021;-74
2022/05/13 16:21:27;;;;;;;5.03;1.90;;;;;;;;;;5069801;28;20036;-74
2022/05/13 16:23:54;;;;;;;4.53;1.85;;;;;;;;;;5054731;28;20025;-74
2022/05/13 16:26:21;;;;;;;2.88;1.50;;;;;;;;;;5053885;28;20426;-74
2022/05/13 16:28:47;;;;;;;2.63;1.40;;;;;;;;;;5054127;28;20438;-74
2022/05/13 16:31:13;;;;;;;2.75;1.50;;;;;;;;;;5054181;28;20353;-74
2022/05/13 16:33:42;;;;;;;3.92;1.90;;;;;;;;;;5053839;28;20029;-74
2022/05/13 16:36:09;;;;;;;6.97;1.75;;;;;;;;;;5069630;28;20390;-74
2022/05/13 16:38:36;;;;;;;4.72;2.20;;;;;;;;;;5054148;28;20029;-73
2022/05/13 16:41:04;;;;;;;8.32;2.65;;;;;;;;;;5053729;28;20028;-74
2022/05/13 16:43:30;;;;;;;7.30;3.08;;;;;;;;;;5054039;28;20435;-73
2022/05/13 16:45:56;;;;;;;7.07;2.90;;;;;;;;;;5053793;28;20049;-74
2022/05/13 16:48:22;;;;;;;4.30;3.10;;;;;;;;;;5053524;28;20367;-73
2022/05/13 16:50:48;;;;;;;4.75;2.40;;;;;;;;;;5069279;28;20021;-73
2022/05/13 16:53:15;;;;;;;3.50;1.80;;;;;;;;;;5053995;28;20465;-73
2022/05/13 16:55:49;;;;;;;5.13;1.90;;;;;;;;;;5053124;28;20027;-73
2022/05/13 16:58:16;;;;;;;4.45;2.00;;;;;;;;;;5054268;28;20474;-73
2022/05/13 17:00:42;;;;;;;3.85;2.20;;;;;;;;;;5069092;28;20385;-74
2022/05/13 17:03:08;;;;;;;4.18;2.30;;;;;;;;;;5053260;28;20017;-74
2022/05/13 17:05:36;;;;;;;3.35;1.98;;;;;;;;;;5053508;28;20033;-74
2022/05/13 17:08:03;;;;;;;6.07;2.10;;;;;;;;;;5053694;28;20055;-73
2022/05/13 17:19:17;;;;;;;5.20;2.33;;;;;;;;;;5031476;28;20429;-74
2022/05/13 17:21:46;;;;;;;6.13;2.05;;;;;;;;;;5031496;28;20100;-74
2022/05/13 17:24:12;;;;;;;6.07;3.08;;;;;;;;;;5044087;28;20111;-74
2022/05/13 17:26:39;;;;;;;4.35;1.83;;;;;;;;;;5068670;28;20059;-74
2022/05/13 17:29:05;;;;;;;4.03;2.00;;;;;;;;;;5053311;28;20039;-74
2022/05/13 17:31:32;;;;;;;4.30;2.47;;;;;;;;;;5052808;28;20025;-74
2022/05/13 17:33:59;;;;;;;5.75;2.85;;;;;;;;;;5053148;28;20163;-74
2022/05/13 17:36:25;;;;;;;5.07;2.42;;;;;;;;;;5052915;28;20024;-74
2022/05/13 17:38:55;;;;;;;4.18;2.22;;;;;;;;;;5068548;28;20461;-74
2022/05/13 17:41:21;;;;;;;4.85;2.13;;;;;;;;;;5053204;28;20482;-74
2022/05/13 17:43:48;;;;;;;5.57;1.95;;;;;;;;;;5052966;28;20045;-75
2022/05/13 17:46:14;;;;;;;3.78;2.15;;;;;;;;;;5052921;28;20077;-75
2022/05/13 17:48:40;;;;;;;7.85;3.17;;;;;;;;;;5053412;28;20025;-74
2022/05/13 17:51:07;;;;;;;8.10;2.75;;;;;;;;;;5052932;28;20021;-74
2022/05/13 17:53:34;;;;;;;7.57;2.95;;;;;;;;;;5053062;28;20501;-75
2022/05/13 17:56:00;;;;;;;19.27;3.63;;;;;;;;;;5052924;28;20036;-74
2022/05/13 17:58:26;;;;;;;7.63;2.67;;;;;;;;;;5052768;28;20151;-75
2022/05/13 18:00:54;;;;;;;5.57;2.75;;;;;;;;;;5053326;28;20105;-75
2022/05/13 18:04:41;;;;;;;7.05;2.78;;;;;;;;;;5111271;27;20450;-74
2022/05/13 18:07:09;;;;;;;4.55;2.50;;;;;;;;;;5111350;28;20073;-74
2022/05/13 18:09:36;;;;;;;4.35;2.30;;;;;;;;;;5111172;28;20433;-74
2022/05/13 18:12:03;;;;;;;4.60;2.42;;;;;;;;;;5110888;28;20035;-74
2022/05/13 18:14:29;;;;;;;4.15;2.67;;;;;;;;;;5111013;28;20024;-74
2022/05/13 18:16:55;;;;;;;4.53;2.60;;;;;;;;;;5111018;28;20019;-74
2022/05/13 18:19:21;;;;;;;5.28;3.03;;;;;;;;;;5110494;28;20107;-74
2022/05/13 18:21:48;;;;;;;11.70;2.88;;;;;;;;;;5110842;28;20020;-74
2022/05/13 18:24:14;;;;;;;6.05;2.72;;;;;;;;;;5110991;28;20062;-74
2022/05/13 18:26:41;;;;;;;4.78;2.40;;;;;;;;;;5110401;28;20426;-74
2022/05/13 18:29:08;;;;;;;4.45;2.13;;;;;;;;;;5110638;28;20031;-74
2022/05/13 18:32:34;;;;;;;7.85;2.40;;;;;;;;;;5110767;27;20420;-74
2022/05/13 18:35:00;;;;;;;8.68;2.90;;;;;;;;;;5111196;28;20480;-73
2022/05/13 18:37:26;;;;;;;6.93;2.90;;;;;;;;;;5111287;28;20020;-73
2022/05/13 18:46:52;;;;;;;8.60;2.90;;;;;;;;;;5110943;28;20174;-75
2022/05/13 18:49:19;;;;;;;7.57;3.08;;;;;;;;;;5111336;28;20361;-75
2022/05/13 18:51:46;;;;;;;5.20;2.88;;;;;;;;;;5110862;28;20494;-75
2022/05/13 18:54:12;;;;;;;7.70;2.50;;;;;;;;;;5109347;28;20028;-74
2022/05/13 19:00:51;;;;;;;8.88;4.15;;;;;;;;;;5111361;27;20396;-75
2022/05/13 19:03:17;;;;;;;6.82;3.42;;;;;;;;;;5111098;28;20027;-74
2022/05/13 19:08:32;;;;;;;6.90;3.65;;;;;;;;;;5110969;27;20808;-75
2022/05/13 19:10:58;;;;;;;10.63;4.78;;;;;;;;;;5109530;28;20062;-74
2022/05/13 19:15:22;;;;;;;10.05;5.68;;;;;;;;;;5110969;27;20400;-73
2022/05/13 19:17:48;;;;;;;6.90;3.55;;;;;;;;;;5111035;28;20444;-73
2022/05/13 19:20:15;;;;;;;6.15;3.03;;;;;;;;;;5111222;28;20024;-73
2022/05/13 19:24:35;;;;;;;4.72;2.70;;;;;;;;;;5111333;27;20442;-74